Time;durP1;ratioP1;P1;durP2;ratioP2;P2;SDS_P1;SDS_P2;PMS_P1;PMS_P2;Temp;Humidity;BMP_temperature;BMP_pressure;BME280_temperature;BME280_humidity;BME280_pressure;Samples;Min_cycle;Max_cycle;Signal;HPM_P1;HPM_P2
2023/12/05 00:01:56;;;;;;;35.95;21.15;;;-2.90;99.90;;;;;;4913792;29;20133;-64
2023/12/05 00:04:23;;;;;;;32.55;20.05;;;-2.90;99.90;;;;;;4916336;29;20617;-64
2023/12/05 00:06:55;;;;;;;32.78;20.77;;;-2.80;99.90;;;;;;4915466;29;20513;-64
2023/12/05 00:09:27;;;;;;;32.95;19.50;;;-2.80;99.90;;;;;;4916190;29;20040;-64
2023/12/05 00:11:58;;;;;;;31.88;20.02;;;-2.80;99.90;;;;;;4912576;29;20532;-64
2023/12/05 00:14:32;;;;;;;28.27;19.17;;;-2.70;99.90;;;;;;4920925;29;20118;-64
2023/12/05 00:17:04;;;;;;;28.05;18.42;;;-2.70;99.90;;;;;;4914273;29;20040;-63
2023/12/05 00:19:35;;;;;;;31.08;19.20;;;-2.70;99.90;;;;;;4913579;29;20198;-64
2023/12/05 00:22:07;;;;;;;36.55;20.98;;;-2.70;99.90;;;;;;4917332;29;20413;-62
2023/12/05 00:24:39;;;;;;;30.05;19.08;;;-2.70;99.90;;;;;;4914803;29;20135;-63
2023/12/05 00:27:11;;;;;;;33.97;20.60;;;-2.70;99.90;;;;;;4915367;29;20058;-62
2023/12/05 00:29:43;;;;;;;37.38;21.85;;;-2.60;99.90;;;;;;4928594;29;20043;-63
2023/12/05 00:32:16;;;;;;;35.50;20.70;;;-2.60;99.90;;;;;;4915381;29;20044;-63
2023/12/05 00:34:48;;;;;;;30.48;19.50;;;-2.50;99.90;;;;;;4919121;29;20411;-63
2023/12/05 00:37:19;;;;;;;36.88;21.40;;;-2.60;99.90;;;;;;4912035;29;20056;-63
2023/12/05 00:39:51;;;;;;;33.97;19.90;;;-2.60;99.90;;;;;;4915415;29;20040;-63
2023/12/05 00:42:23;;;;;;;33.00;20.95;;;-2.60;99.90;;;;;;4916285;29;20520;-63
2023/12/05 00:44:55;;;;;;;31.67;20.35;;;-2.50;99.90;;;;;;4914556;29;20055;-63
2023/12/05 00:47:27;;;;;;;31.05;19.58;;;-2.50;99.90;;;;;;4899728;29;20055;-63
2023/12/05 00:49:58;;;;;;;31.60;20.45;;;-2.50;99.90;;;;;;4910459;29;20052;-63
2023/12/05 00:52:25;;;;;;;30.83;19.17;;;-2.50;99.90;;;;;;4913406;29;20040;-63
2023/12/05 00:54:56;;;;;;;31.45;22.05;;;-2.50;99.90;;;;;;4914378;29;20091;-63
2023/12/05 00:57:28;;;;;;;32.03;19.73;;;-2.40;99.90;;;;;;4915334;29;20135;-63
2023/12/05 00:59:54;;;;;;;36.08;19.70;;;-2.40;99.90;;;;;;4912558;29;20055;-64
2023/12/05 01:02:26;;;;;;;30.65;19.23;;;-2.40;99.90;;;;;;4913364;29;20413;-63
2023/12/05 01:04:58;;;;;;;28.48;18.17;;;-2.40;99.90;;;;;;4911247;29;20044;-64
2023/12/05 01:07:30;;;;;;;35.67;20.73;;;-2.40;99.90;;;;;;4914450;29;20055;-64
2023/12/05 01:10:05;;;;;;;33.45;20.20;;;-2.30;99.90;;;;;;4911142;29;20536;-64
2023/12/05 01:12:37;;;;;;;29.90;20.60;;;-2.20;99.90;;;;;;4911505;29;20044;-64
2023/12/05 01:15:09;;;;;;;32.58;20.65;;;-2.10;99.90;;;;;;4908306;29;20513;-64
2023/12/05 01:17:36;;;;;;;33.47;20.23;;;-2.10;99.90;;;;;;4912010;29;20055;-64
2023/12/05 01:20:07;;;;;;;35.17;20.50;;;-2.00;99.90;;;;;;4912955;29;20032;-63
2023/12/05 01:22:34;;;;;;;32.08;20.40;;;-2.10;99.90;;;;;;4913016;29;20040;-64
2023/12/05 01:25:07;;;;;;;32.78;20.65;;;-2.00;99.90;;;;;;4898982;29;20059;-64
2023/12/05 01:27:39;;;;;;;31.42;18.90;;;-2.00;99.90;;;;;;4896925;29;20048;-63
2023/12/05 01:30:11;;;;;;;32.75;20.20;;;-2.00;99.90;;;;;;4913823;29;20052;-64
2023/12/05 01:32:42;;;;;;;34.15;20.17;;;-2.10;99.90;;;;;;4913336;29;20063;-64
2023/12/05 01:35:09;;;;;;;33.13;21.38;;;-2.00;99.90;;;;;;4909917;29;20127;-63
2023/12/05 01:37:42;;;;;;;27.88;20.35;;;-2.00;99.90;;;;;;4911631;29;20055;-64
2023/12/05 01:40:14;;;;;;;33.05;19.85;;;-2.00;99.90;;;;;;4913129;29;20041;-64
2023/12/05 01:42:45;;;;;;;28.42;18.33;;;-2.00;99.90;;;;;;4912596;29;20044;-64
2023/12/05 01:45:17;;;;;;;26.10;15.88;;;-2.00;99.90;;;;;;4910810;29;20434;-64
2023/12/05 01:47:49;;;;;;;21.88;15.63;;;-2.00;99.90;;;;;;4912827;29;20047;-64
2023/12/05 01:50:25;;;;;;;24.15;15.63;;;-1.90;99.90;;;;;;4915642;29;20048;-64
2023/12/05 01:53:02;;;;;;;24.17;15.27;;;-1.90;99.90;;;;;;4915160;29;20063;-64
2023/12/05 01:55:36;;;;;;;22.42;14.57;;;-1.80;99.90;;;;;;4913821;29;20044;-64
2023/12/05 01:58:11;;;;;;;25.17;15.63;;;-1.80;99.90;;;;;;4922279;29;20115;-63
2023/12/05 02:00:43;;;;;;;23.13;15.23;;;-1.70;99.90;;;;;;4912640;29;20052;-64
2023/12/05 02:03:15;;;;;;;25.35;15.63;;;-1.70;99.90;;;;;;4911575;29;20617;-64
2023/12/05 02:05:43;;;;;;;24.02;15.45;;;-1.70;99.90;;;;;;4911416;29;20048;-64
2023/12/05 02:08:12;;;;;;;32.83;16.35;;;-1.70;99.90;;;;;;4909201;29;20044;-64
2023/12/05 02:10:44;;;;;;;24.05;16.67;;;-1.60;99.90;;;;;;4913117;29;20526;-64
2023/12/05 02:13:11;;;;;;;26.25;17.58;;;-1.60;99.90;;;;;;4912848;29;20122;-63
2023/12/05 02:15:43;;;;;;;23.95;16.75;;;-1.60;99.90;;;;;;4908438;29;20052;-64
2023/12/05 02:18:20;;;;;;;24.17;16.70;;;-1.50;99.90;;;;;;4914669;29;20521;-64
2023/12/05 02:20:59;;;;;;;29.52;18.58;;;-1.50;99.90;;;;;;4912841;29;20060;-63
2023/12/05 02:23:38;;;;;;;22.10;15.85;;;-1.40;99.90;;;;;;4913281;29;20040;-63
2023/12/05 02:26:18;;;;;;;25.15;17.42;;;-1.40;99.90;;;;;;4910032;29;20052;-64
2023/12/05 02:28:50;;;;;;;26.65;17.13;;;-1.30;99.90;;;;;;4910309;29;20051;-64
2023/12/05 02:31:22;;;;;;;25.67;17.40;;;-1.20;99.90;;;;;;4909318;29;20054;-64
2023/12/05 02:33:54;;;;;;;27.17;17.52;;;-1.20;99.90;;;;;;4905870;29;20088;-64
2023/12/05 02:36:44;;;;;;;28.73;17.17;;;-1.10;99.90;;;;;;4913610;29;20051;-63
2023/12/05 02:39:22;;;;;;;25.00;15.90;;;-1.10;99.90;;;;;;4907969;29;20617;-64
2023/12/05 02:41:56;;;;;;;25.92;16.48;;;-1.10;99.90;;;;;;4913544;29;20047;-63
2023/12/05 02:44:47;;;;;;;24.83;16.73;;;-1.10;99.90;;;;;;4914103;29;20044;-64
2023/12/05 02:47:22;;;;;;;29.42;16.60;;;-1.10;99.90;;;;;;4911984;29;20044;-64
2023/12/05 02:49:54;;;;;;;26.58;16.40;;;-1.10;99.90;;;;;;4917717;29;20058;-63
2023/12/05 02:52:26;;;;;;;24.35;15.65;;;-1.10;99.90;;;;;;4909501;29;20504;-63
2023/12/05 02:54:58;;;;;;;22.70;15.15;;;-1.10;99.90;;;;;;4909655;29;20043;-64
2023/12/05 02:57:30;;;;;;;21.92;15.10;;;-1.10;99.90;;;;;;4940232;29;20135;-64
2023/12/05 03:00:04;;;;;;;26.30;15.40;;;-1.10;99.90;;;;;;4912556;29;20044;-64
2023/12/05 03:02:36;;;;;;;24.73;14.60;;;-1.20;99.90;;;;;;4913015;29;20394;-64
2023/12/05 03:05:08;;;;;;;24.80;15.07;;;-1.20;99.90;;;;;;4911320;29;20075;-64
2023/12/05 03:07:39;;;;;;;22.33;13.60;;;-1.20;99.90;;;;;;4911999;29;20620;-64
2023/12/05 03:10:11;;;;;;;25.27;15.25;;;-1.20;99.90;;;;;;4912794;29;20040;-64
2023/12/05 03:12:43;;;;;;;26.55;14.50;;;-1.20;99.90;;;;;;4912635;29;20561;-64
2023/12/05 03:15:10;;;;;;;20.25;13.43;;;-1.20;99.90;;;;;;4909111;29;20039;-63
2023/12/05 03:17:42;;;;;;;25.27;14.40;;;-1.10;99.90;;;;;;4911869;29;20046;-64
2023/12/05 03:20:14;;;;;;;23.48;15.52;;;-1.10;99.90;;;;;;4897107;29;20127;-64
2023/12/05 03:22:41;;;;;;;23.13;14.48;;;-1.10;99.90;;;;;;4906305;29;20051;-64
2023/12/05 03:25:13;;;;;;;24.55;14.55;;;-1.10;99.90;;;;;;4909811;29;20044;-64
2023/12/05 03:27:45;;;;;;;22.42;13.98;;;-1.10;99.90;;;;;;4910507;29;20043;-64
2023/12/05 03:30:17;;;;;;;26.27;13.77;;;-1.10;99.90;;;;;;4911024;29;20517;-64
2023/12/05 03:32:49;;;;;;;24.33;13.73;;;-1.10;99.90;;;;;;4906526;29;20043;-64
2023/12/05 03:35:21;;;;;;;29.95;16.38;;;-1.10;99.90;;;;;;4911378;29;20525;-64
2023/12/05 03:37:53;;;;;;;22.35;13.52;;;-1.10;99.90;;;;;;4913437;29;20390;-64
2023/12/05 03:40:25;;;;;;;22.42;13.30;;;-1.00;99.90;;;;;;4911532;29;20048;-63
2023/12/05 03:42:51;;;;;;;26.27;14.02;;;-1.00;99.90;;;;;;4911986;29;20123;-63
2023/12/05 03:45:23;;;;;;;24.48;14.13;;;-1.00;99.90;;;;;;4910040;29;20501;-64
2023/12/05 03:47:55;;;;;;;24.52;14.20;;;-1.00;99.90;;;;;;4909483;29;20052;-64
2023/12/05 03:50:27;;;;;;;21.27;13.25;;;-1.10;99.90;;;;;;4908083;29;20040;-64
2023/12/05 03:52:58;;;;;;;18.15;12.15;;;-1.10;99.90;;;;;;4909781;29;20064;-63
2023/12/05 03:55:34;;;;;;;23.38;13.10;;;-1.20;99.90;;;;;;4907583;29;20044;-63
2023/12/05 03:58:06;;;;;;;24.40;15.23;;;-1.30;99.90;;;;;;4908650;29;20544;-64
2023/12/05 04:00:38;;;;;;;25.75;16.60;;;-1.40;99.90;;;;;;4912717;29;20040;-64
2023/12/05 04:03:10;;;;;;;25.02;15.85;;;-1.50;99.90;;;;;;4913597;29;20047;-63
2023/12/05 04:05:41;;;;;;;23.33;15.70;;;-1.60;99.90;;;;;;4912696;29;20048;-64
2023/12/05 04:08:13;;;;;;;24.55;15.80;;;-1.60;99.90;;;;;;4912200;29;20585;-64
2023/12/05 04:10:45;;;;;;;19.10;12.63;;;-1.70;99.90;;;;;;4917198;29;20047;-63
2023/12/05 04:13:17;;;;;;;21.50;13.32;;;-1.80;99.90;;;;;;4909288;29;20048;-64
2023/12/05 04:15:44;;;;;;;18.63;11.48;;;-1.90;99.90;;;;;;4910056;29;20572;-64
2023/12/05 04:18:16;;;;;;;22.50;11.85;;;-2.00;99.90;;;;;;4910068;29;20054;-64
2023/12/05 04:20:43;;;;;;;17.70;10.77;;;-2.00;99.90;;;;;;4918302;29;20040;-64
2023/12/05 04:23:15;;;;;;;19.15;11.80;;;-2.10;99.90;;;;;;4912330;29;20044;-64
2023/12/05 04:25:47;;;;;;;16.73;10.30;;;-2.10;99.90;;;;;;4912607;29;20128;-63
2023/12/05 04:28:18;;;;;;;18.20;9.50;;;-2.20;99.90;;;;;;4912500;29;20540;-64
2023/12/05 04:30:50;;;;;;;16.98;10.43;;;-2.20;99.90;;;;;;4916025;29;20040;-64
2023/12/05 04:33:22;;;;;;;16.30;9.32;;;-2.30;99.90;;;;;;4910811;29;20044;-63
2023/12/05 04:35:54;;;;;;;16.05;8.98;;;-2.30;99.90;;;;;;4915544;29;20047;-64
2023/12/05 04:38:26;;;;;;;16.05;9.23;;;-2.40;99.90;;;;;;4912581;29;20509;-63
2023/12/05 04:40:58;;;;;;;13.48;8.15;;;-2.50;99.90;;;;;;4910793;29;20044;-63
2023/12/05 04:43:30;;;;;;;16.17;8.95;;;-2.50;99.90;;;;;;4911386;29;20143;-63
2023/12/05 04:46:03;;;;;;;13.85;8.85;;;-2.50;99.90;;;;;;4913895;29;20063;-63
2023/12/05 04:48:34;;;;;;;11.90;7.30;;;-2.50;99.90;;;;;;4912511;29;20046;-63
2023/12/05 04:51:06;;;;;;;12.90;7.18;;;-2.60;99.90;;;;;;4912330;29;20062;-64
2023/12/05 04:53:40;;;;;;;14.32;7.60;;;-2.60;99.90;;;;;;4912845;29;20532;-63
2023/12/05 04:56:12;;;;;;;12.15;7.28;;;-2.60;99.90;;;;;;4913858;29;20071;-63
2023/12/05 04:58:44;;;;;;;12.95;6.75;;;-2.60;99.90;;;;;;4912961;29;20032;-64
2023/12/05 05:01:16;;;;;;;13.57;7.10;;;-2.50;99.90;;;;;;4914335;29;20048;-64
2023/12/05 05:03:47;;;;;;;15.13;7.68;;;-2.50;99.90;;;;;;4911272;29;20040;-64
2023/12/05 05:06:21;;;;;;;12.75;7.97;;;-2.50;99.90;;;;;;4912826;29;20150;-64
2023/12/05 05:08:53;;;;;;;14.63;8.80;;;-2.40;99.90;;;;;;4925250;29;20047;-64
2023/12/05 05:11:24;;;;;;;14.80;7.53;;;-2.30;99.90;;;;;;4912990;29;20051;-63
2023/12/05 05:13:57;;;;;;;13.82;7.30;;;-2.30;99.90;;;;;;4913017;29;20063;-64
2023/12/05 05:16:29;;;;;;;13.48;7.60;;;-2.30;99.90;;;;;;4912422;29;20051;-64
2023/12/05 05:19:01;;;;;;;18.98;11.15;;;-2.20;99.90;;;;;;4911853;29;20420;-64
2023/12/05 05:21:33;;;;;;;28.75;14.45;;;-2.20;99.90;;;;;;4910686;29;20036;-64
2023/12/05 05:24:05;;;;;;;24.00;14.15;;;-2.20;99.90;;;;;;4913272;29;20044;-65
2023/12/05 05:26:36;;;;;;;31.08;15.40;;;-2.20;99.90;;;;;;4909709;29;20733;-64
2023/12/05 05:29:03;;;;;;;26.75;15.05;;;-2.30;99.90;;;;;;4912318;29;20670;-64
2023/12/05 05:31:35;;;;;;;26.88;14.25;;;-2.30;99.90;;;;;;4911609;29;20062;-64
2023/12/05 05:34:07;;;;;;;32.33;18.17;;;-2.30;99.90;;;;;;4911133;29;20041;-64
2023/12/05 05:36:39;;;;;;;43.30;23.63;;;-2.30;99.90;;;;;;4913311;29;20063;-64
2023/12/05 05:39:11;;;;;;;39.75;22.70;;;-2.30;99.90;;;;;;4912787;29;20465;-64
2023/12/05 05:41:38;;;;;;;40.10;22.58;;;-2.20;99.90;;;;;;4913678;29;20043;-64
2023/12/05 05:44:10;;;;;;;41.60;23.00;;;-2.20;99.90;;;;;;4909391;29;20044;-63
2023/12/05 05:46:42;;;;;;;44.00;22.42;;;-2.20;99.90;;;;;;4914730;29;20039;-64
2023/12/05 05:49:09;;;;;;;43.90;21.55;;;-2.20;99.90;;;;;;4912907;29;20140;-64
2023/12/05 05:51:41;;;;;;;38.13;22.30;;;-2.20;99.90;;;;;;4910366;29;20044;-64
2023/12/05 05:54:12;;;;;;;29.13;18.08;;;-2.20;99.90;;;;;;4906606;29;20056;-64
2023/12/05 05:56:44;;;;;;;28.92;18.42;;;-2.20;99.90;;;;;;4915181;29;20048;-64
2023/12/05 05:59:16;;;;;;;30.65;18.73;;;-2.20;99.90;;;;;;4910964;29;20048;-64
2023/12/05 06:01:48;;;;;;;34.65;18.75;;;-2.20;99.90;;;;;;4914712;29;20134;-64
2023/12/05 06:04:20;;;;;;;32.40;19.67;;;-2.20;99.90;;;;;;4911932;29;20047;-64
2023/12/05 06:06:52;;;;;;;32.90;21.05;;;-2.20;99.90;;;;;;4910684;29;20119;-64
2023/12/05 06:09:23;;;;;;;51.80;29.13;;;-2.20;99.90;;;;;;4908389;29;20050;-64
2023/12/05 06:11:55;;;;;;;36.42;23.25;;;-2.20;99.90;;;;;;4911885;29;20136;-64
2023/12/05 06:14:27;;;;;;;24.73;15.40;;;-2.20;99.90;;;;;;4913415;29;20127;-64
2023/12/05 06:16:54;;;;;;;16.27;9.68;;;-2.20;99.90;;;;;;4909424;29;20046;-64
2023/12/05 06:19:26;;;;;;;8.55;5.13;;;-1.90;99.90;;;;;;4912146;29;20047;-64
2023/12/05 06:21:53;;;;;;;10.98;5.25;;;-1.20;99.90;;;;;;4912446;29;20127;-64
2023/12/05 06:24:26;;;;;;;9.70;4.57;;;-0.50;99.90;;;;;;4913023;29;20048;-64
2023/12/05 06:26:59;;;;;;;8.20;4.75;;;0.10;99.90;;;;;;4911065;29;20118;-64
2023/12/05 06:29:32;;;;;;;8.52;4.82;;;0.50;99.90;;;;;;4897550;29;20170;-64
2023/12/05 06:32:04;;;;;;;8.68;4.63;;;0.80;99.90;;;;;;4910006;29;20067;-64
2023/12/05 06:34:35;;;;;;;8.13;4.03;;;0.90;99.90;;;;;;4907394;29;20044;-64
2023/12/05 06:37:08;;;;;;;8.38;3.72;;;1.10;99.90;;;;;;4914345;29;20048;-64
2023/12/05 06:39:40;;;;;;;6.93;4.07;;;1.20;99.90;;;;;;4911371;29;20051;-64
2023/12/05 06:42:12;;;;;;;7.18;4.60;;;1.30;99.90;;;;;;4925990;29;20042;-64
2023/12/05 06:44:39;;;;;;;7.55;3.50;;;1.30;99.90;;;;;;4910705;29;20048;-64
2023/12/05 06:47:11;;;;;;;5.53;3.63;;;1.30;99.90;;;;;;4911420;29;20050;-64
2023/12/05 06:49:44;;;;;;;9.73;3.92;;;1.50;99.90;;;;;;4932885;28;20087;-64
2023/12/05 06:52:16;;;;;;;6.03;3.88;;;1.70;99.90;;;;;;4911685;29;20505;-64
2023/12/05 06:54:47;;;;;;;5.47;3.47;;;1.80;99.90;;;;;;4909554;29;20055;-63
2023/12/05 06:57:22;;;;;;;5.05;3.00;;;1.90;99.90;;;;;;4910922;29;20517;-64
2023/12/05 06:59:54;;;;;;;7.35;3.50;;;1.90;99.90;;;;;;4909744;29;20044;-63
2023/12/05 07:02:26;;;;;;;5.07;3.50;;;1.90;99.90;;;;;;4911310;29;20428;-64
2023/12/05 07:04:58;;;;;;;4.85;3.42;;;2.00;99.90;;;;;;4906484;29;20151;-64
2023/12/05 07:07:30;;;;;;;4.82;2.83;;;2.10;99.90;;;;;;4909860;29;20047;-63
2023/12/05 07:10:03;;;;;;;5.78;3.17;;;2.10;99.90;;;;;;4913868;29;20055;-64
2023/12/05 07:12:35;;;;;;;6.45;3.28;;;2.00;99.90;;;;;;4897935;29;20064;-64
2023/12/05 07:15:09;;;;;;;5.93;3.20;;;2.00;99.90;;;;;;4907514;29;20044;-63
2023/12/05 07:17:37;;;;;;;5.85;3.47;;;2.00;99.90;;;;;;4908625;29;20036;-64
2023/12/05 07:20:05;;;;;;;5.00;3.35;;;2.00;99.90;;;;;;4909364;29;20040;-64
2023/12/05 07:22:38;;;;;;;7.57;3.97;;;2.00;99.90;;;;;;4908458;29;20668;-64
2023/12/05 07:25:06;;;;;;;5.93;3.13;;;2.00;99.90;;;;;;4907826;29;20100;-64
2023/12/05 07:27:35;;;;;;;5.07;3.10;;;2.00;99.90;;;;;;4911105;29;20040;-63
2023/12/05 07:30:03;;;;;;;4.53;3.45;;;2.10;99.90;;;;;;4919230;29;20128;-63
2023/12/05 07:32:35;;;;;;;5.03;3.13;;;2.10;99.90;;;;;;4911186;29;20044;-64
2023/12/05 07:35:07;;;;;;;6.07;4.03;;;2.10;99.90;;;;;;4905913;29;20188;-64
2023/12/05 07:37:39;;;;;;;4.85;3.53;;;2.10;99.90;;;;;;4893859;29;20052;-63
2023/12/05 07:40:07;;;;;;;6.40;3.60;;;2.10;99.90;;;;;;4908006;29;20416;-63
2023/12/05 07:42:39;;;;;;;6.37;3.30;;;2.10;99.90;;;;;;4896410;29;20167;-64
2023/12/05 07:45:11;;;;;;;9.10;4.22;;;2.10;99.90;;;;;;4918319;29;20432;-65
2023/12/05 07:47:46;;;;;;;5.43;3.50;;;2.10;99.90;;;;;;4908233;29;20501;-65
2023/12/05 07:50:18;;;;;;;5.35;3.20;;;2.10;99.90;;;;;;4911739;29;20052;-64
2023/12/05 07:52:49;;;;;;;7.20;3.75;;;2.10;99.90;;;;;;4924637;29;20036;-64
2023/12/05 07:55:21;;;;;;;7.60;4.97;;;2.20;99.90;;;;;;4908858;29;20770;-64
2023/12/05 07:57:54;;;;;;;7.53;3.78;;;2.20;99.90;;;;;;4910819;29;20044;-64
2023/12/05 08:00:26;;;;;;;5.82;4.03;;;2.20;99.90;;;;;;4891324;29;20048;-64
2023/12/05 08:02:58;;;;;;;7.80;4.28;;;2.20;99.90;;;;;;4911801;29;20096;-64
2023/12/05 08:05:29;;;;;;;6.97;4.13;;;2.20;99.90;;;;;;4914883;29;20044;-64
2023/12/05 08:08:01;;;;;;;7.68;4.63;;;2.20;99.90;;;;;;4915276;29;20059;-65
2023/12/05 08:10:33;;;;;;;7.88;4.45;;;2.20;99.90;;;;;;4911053;29;20390;-65
2023/12/05 08:13:04;;;;;;;7.18;4.25;;;2.30;99.90;;;;;;4913927;29;20509;-64
2023/12/05 08:15:36;;;;;;;10.05;5.20;;;2.30;99.90;;;;;;4923508;29;20055;-65
2023/12/05 08:18:09;;;;;;;6.60;4.72;;;2.40;99.90;;;;;;4914421;29;20051;-65
2023/12/05 08:20:40;;;;;;;9.23;4.88;;;2.40;99.90;;;;;;4911794;29;20044;-65
2023/12/05 08:23:12;;;;;;;7.78;5.03;;;2.40;99.90;;;;;;4914619;29;20036;-64
2023/12/05 08:25:44;;;;;;;9.27;5.10;;;2.40;99.90;;;;;;4915525;29;20044;-65
2023/12/05 08:28:16;;;;;;;8.18;4.53;;;2.40;99.90;;;;;;4913893;29;20143;-64
2023/12/05 08:30:43;;;;;;;7.25;4.32;;;2.40;99.90;;;;;;4909849;29;20044;-65
2023/12/05 08:33:10;;;;;;;6.50;4.47;;;2.40;99.90;;;;;;4914987;29;20769;-65
2023/12/05 08:35:42;;;;;;;6.88;4.65;;;2.40;99.90;;;;;;4913570;29;20047;-64
2023/12/05 08:38:14;;;;;;;7.30;4.53;;;2.40;99.90;;;;;;4897442;29;20063;-65
2023/12/05 08:40:46;;;;;;;8.82;4.25;;;2.40;99.90;;;;;;4912119;29;20085;-66
2023/12/05 08:43:12;;;;;;;6.57;3.97;;;2.40;99.90;;;;;;4909152;29;20032;-65
2023/12/05 08:45:44;;;;;;;6.40;3.80;;;2.40;99.90;;;;;;4911590;29;20051;-65
2023/12/05 08:48:16;;;;;;;5.85;3.78;;;2.50;99.90;;;;;;4913519;29;20058;-65
2023/12/05 08:50:48;;;;;;;6.03;3.80;;;2.50;99.90;;;;;;4912385;29;20499;-65
2023/12/05 08:53:20;;;;;;;7.18;4.20;;;2.60;99.90;;;;;;4914258;29;20617;-65
2023/12/05 08:55:52;;;;;;;7.32;4.55;;;2.60;99.90;;;;;;4909504;29;20039;-65
2023/12/05 08:58:24;;;;;;;7.63;4.57;;;2.60;99.90;;;;;;4910639;29;20076;-65
2023/12/05 09:00:56;;;;;;;9.73;4.43;;;2.60;99.90;;;;;;4913653;29;20040;-66
2023/12/05 09:03:23;;;;;;;8.27;4.18;;;2.60;99.90;;;;;;4913306;29;20095;-66
2023/12/05 09:05:50;;;;;;;10.18;5.07;;;2.70;99.90;;;;;;4912730;29;20044;-66
2023/12/05 09:08:22;;;;;;;8.18;4.80;;;2.70;99.90;;;;;;4907840;29;20044;-65
2023/12/05 09:10:57;;;;;;;9.07;4.47;;;2.70;99.90;;;;;;4910766;29;20040;-65
2023/12/05 09:13:28;;;;;;;9.10;4.35;;;2.70;99.90;;;;;;4910698;29;20048;-65
2023/12/05 09:16:00;;;;;;;9.25;4.80;;;2.80;99.90;;;;;;4913612;29;20055;-66
2023/12/05 09:18:32;;;;;;;5.45;3.50;;;2.80;99.90;;;;;;4913112;29;20081;-67
2023/12/05 09:21:04;;;;;;;7.20;4.05;;;2.70;99.90;;;;;;4914291;29;20119;-66
2023/12/05 09:23:31;;;;;;;6.30;3.78;;;2.80;99.90;;;;;;4909344;29;20042;-65
2023/12/05 09:26:04;;;;;;;7.78;4.80;;;2.80;99.90;;;;;;4912189;29;20051;-64
2023/12/05 09:28:36;;;;;;;6.30;4.40;;;2.80;99.90;;;;;;4907577;29;20066;-65
2023/12/05 09:31:08;;;;;;;8.45;4.32;;;2.70;99.90;;;;;;4909884;29;20055;-65
2023/12/05 09:33:40;;;;;;;7.90;4.70;;;2.70;99.90;;;;;;4912250;29;20544;-65
2023/12/05 09:36:08;;;;;;;6.57;4.65;;;2.70;99.90;;;;;;4919369;29;20796;-65
2023/12/05 09:38:35;;;;;;;7.97;4.57;;;2.70;99.90;;;;;;4921958;29;20075;-65
2023/12/05 09:41:10;;;;;;;7.10;4.55;;;2.80;99.90;;;;;;4910639;29;20107;-65
2023/12/05 09:43:39;;;;;;;8.65;5.20;;;2.80;99.90;;;;;;4909699;29;20281;-65
2023/12/05 09:46:12;;;;;;;;;;;2.80;99.90;;;;;;4913200;29;20044;-66
2023/12/05 09:48:49;;;;;;;8.75;5.55;;;2.80;99.90;;;;;;4907986;29;19923;-65
2023/12/05 09:51:19;;;;;;;7.57;4.78;;;2.90;99.90;;;;;;4917817;29;20048;-65
2023/12/05 09:53:53;;;;;;;6.72;4.90;;;2.90;99.90;;;;;;4909568;29;20605;-65
2023/12/05 09:56:26;;;;;;;9.27;5.43;;;2.90;99.90;;;;;;4910115;29;20067;-65
2023/12/05 09:58:59;;;;;;;8.80;5.03;;;2.90;99.90;;;;;;4911956;29;20398;-65
2023/12/05 10:01:35;;;;;;;6.63;4.10;;;3.00;99.90;;;;;;4909454;29;20305;-66
2023/12/05 10:04:02;;;;;;;9.20;4.97;;;3.10;99.90;;;;;;4910048;29;20415;-66
2023/12/05 10:06:37;;;;;;;5.80;3.78;;;3.20;99.90;;;;;;4913212;29;20055;-65
2023/12/05 10:09:10;;;;;;;8.85;4.35;;;3.20;99.90;;;;;;4906345;29;20056;-65
2023/12/05 10:11:44;;;;;;;8.55;5.13;;;3.30;99.90;;;;;;4911404;29;20044;-65
2023/12/05 10:14:16;;;;;;;;;;;3.30;99.90;;;;;;4910745;29;20058;-66
2023/12/05 10:16:44;;;;;;;6.95;4.65;;;3.30;99.90;;;;;;4908653;29;19926;-65
2023/12/05 10:19:16;;;;;;;7.75;4.70;;;3.30;99.90;;;;;;4912288;29;20620;-65
2023/12/05 10:21:53;;;;;;;6.65;4.13;;;3.40;99.90;;;;;;4911978;29;20751;-65
2023/12/05 10:24:48;;;;;;;6.22;4.60;;;3.40;99.90;;;;;;4912293;29;20054;-65
2023/12/05 10:27:20;;;;;;;6.28;4.10;;;3.40;99.90;;;;;;4909072;29;20084;-65
2023/12/05 10:29:51;;;;;;;7.55;4.22;;;3.50;99.90;;;;;;4911277;29;20044;-65
2023/12/05 10:32:29;;;;;;;6.25;4.07;;;3.50;99.90;;;;;;4911116;29;20044;-65
2023/12/05 10:35:03;;;;;;;6.30;3.80;;;3.60;99.90;;;;;;4911774;29;20505;-65
2023/12/05 10:37:35;;;;;;;8.57;4.47;;;3.60;99.90;;;;;;4907071;29;20041;-66
2023/12/05 10:40:08;;;;;;;6.80;3.60;;;3.70;99.90;;;;;;4912575;29;20509;-66
2023/12/05 10:42:40;;;;;;;4.65;2.85;;;3.70;99.90;;;;;;4912594;29;20048;-66
2023/12/05 10:45:12;;;;;;;5.78;3.60;;;3.70;99.90;;;;;;4910653;29;20063;-65
2023/12/05 10:47:43;;;;;;;6.05;4.00;;;3.70;99.90;;;;;;4908721;29;20132;-65
2023/12/05 10:50:16;;;;;;;5.88;3.67;;;3.80;99.90;;;;;;4909538;29;20539;-66
2023/12/05 10:52:48;;;;;;;4.97;3.40;;;3.80;99.90;;;;;;4910069;29;20513;-65
2023/12/05 10:55:26;;;;;;;7.82;3.60;;;3.80;99.90;;;;;;4920782;29;20304;-65
2023/12/05 10:57:59;;;;;;;7.00;3.85;;;3.80;99.90;;;;;;4912225;29;20505;-64
2023/12/05 11:00:31;;;;;;;5.47;3.33;;;3.80;99.90;;;;;;4910714;29;20416;-64
2023/12/05 11:03:04;;;;;;;7.03;4.32;;;3.80;99.90;;;;;;4912595;29;20159;-65
2023/12/05 11:05:32;;;;;;;6.70;4.03;;;3.80;99.90;;;;;;4911861;29;20044;-66
2023/12/05 11:08:00;;;;;;;5.68;3.50;;;3.80;99.90;;;;;;4909275;29;20068;-66
2023/12/05 11:10:32;;;;;;;5.95;3.60;;;3.80;99.90;;;;;;4908111;29;20048;-66
2023/12/05 11:13:05;;;;;;;4.82;2.95;;;3.80;99.90;;;;;;4907453;29;20051;-65
2023/12/05 11:15:39;;;;;;;7.57;4.45;;;3.80;99.90;;;;;;4905067;29;20524;-65
2023/12/05 11:18:34;;;;;;;5.57;3.88;;;3.70;99.90;;;;;;4910296;29;20042;-64
2023/12/05 11:21:12;;;;;;;5.53;3.50;;;3.70;99.90;;;;;;4924595;29;20048;-65
2023/12/05 11:23:53;;;;;;;5.47;3.42;;;3.60;99.90;;;;;;4911770;29;20072;-65
2023/12/05 11:26:23;;;;;;;6.85;3.42;;;3.60;99.90;;;;;;4911320;29;20525;-66
2023/12/05 11:29:13;;;;;;;8.52;4.28;;;3.50;99.90;;;;;;4909726;29;20044;-67
2023/12/05 11:32:12;;;;;;;7.22;3.90;;;3.50;99.90;;;;;;4911301;29;20055;-65
2023/12/05 11:35:08;;;;;;;6.60;3.22;;;3.60;99.90;;;;;;4906246;29;20056;-65
2023/12/05 11:38:07;;;;;;;3.70;2.88;;;3.60;99.90;;;;;;4913524;29;20043;-68
2023/12/05 11:40:42;;;;;;;5.15;3.13;;;3.70;99.90;;;;;;4914527;29;20123;-68
2023/12/05 11:43:12;;;;;;;6.95;3.25;;;3.70;99.90;;;;;;4916224;29;20040;-67
2023/12/05 11:45:45;;;;;;;4.15;2.95;;;3.80;99.90;;;;;;4915252;29;20164;-66
2023/12/05 11:48:23;;;;;;;4.97;3.00;;;3.80;99.90;;;;;;4915492;29;20075;-68
2023/12/05 11:50:56;;;;;;;4.53;2.75;;;3.90;99.90;;;;;;4924817;29;20795;-68
2023/12/05 11:53:29;;;;;;;5.70;3.03;;;3.90;99.90;;;;;;4911259;29;20044;-69
2023/12/05 11:56:01;;;;;;;4.72;2.90;;;4.00;99.90;;;;;;4929364;29;20527;-68
2023/12/05 11:58:32;;;;;;;3.63;2.55;;;4.10;99.90;;;;;;4911599;29;20372;-65
2023/12/05 12:01:13;;;;;;;4.30;3.00;;;4.10;99.90;;;;;;4915537;29;20135;-67
2023/12/05 12:03:50;;;;;;;4.18;2.55;;;4.10;99.90;;;;;;4926919;29;20048;-66
2023/12/05 12:06:19;;;;;;;3.83;2.80;;;4.20;99.90;;;;;;4909993;29;20060;-67
2023/12/05 12:08:53;;;;;;;3.67;2.63;;;4.20;99.90;;;;;;4907853;29;20581;-66
2023/12/05 12:11:21;;;;;;;5.28;3.10;;;4.10;99.90;;;;;;4919928;29;20070;-67
2023/12/05 12:13:48;;;;;;;4.03;2.40;;;4.00;99.90;;;;;;4910813;29;20405;-66
2023/12/05 12:16:20;;;;;;;3.67;2.38;;;4.00;99.90;;;;;;4911845;29;20051;-66
2023/12/05 12:18:52;;;;;;;3.22;2.58;;;3.90;99.90;;;;;;4915005;29;20437;-67
2023/12/05 12:21:20;;;;;;;5.90;3.20;;;3.80;99.90;;;;;;4913641;29;20043;-67
2023/12/05 12:23:56;;;;;;;4.05;2.28;;;3.80;99.90;;;;;;4908371;29;20044;-66
2023/12/05 12:26:32;;;;;;;3.47;2.55;;;3.70;99.90;;;;;;4912024;29;20049;-67
2023/12/05 12:29:08;;;;;;;3.35;2.20;;;3.70;99.90;;;;;;4909932;29;20048;-67
2023/12/05 12:31:40;;;;;;;3.63;2.20;;;3.70;99.90;;;;;;4913271;29;20505;-67
2023/12/05 12:34:26;;;;;;;2.63;2.22;;;3.80;99.90;;;;;;4913415;29;20048;-67
2023/12/05 12:36:58;;;;;;;3.53;2.33;;;3.80;99.90;;;;;;4913370;29;20045;-67
2023/12/05 12:39:30;;;;;;;4.22;2.20;;;3.70;99.90;;;;;;4899400;29;20048;-66
2023/12/05 12:42:02;;;;;;;3.58;2.15;;;3.70;99.90;;;;;;4910556;29;20044;-66
2023/12/05 12:44:34;;;;;;;2.80;2.13;;;3.70;99.90;;;;;;4911866;29;20509;-66
2023/12/05 12:47:06;;;;;;;3.20;2.22;;;3.80;99.90;;;;;;4926641;29;20040;-65
2023/12/05 12:49:38;;;;;;;3.88;1.85;;;3.80;99.90;;;;;;4920752;29;20059;-67
2023/12/05 12:52:10;;;;;;;2.90;2.05;;;3.80;99.90;;;;;;4914479;29;20055;-66
2023/12/05 12:54:43;;;;;;;2.67;1.58;;;3.70;99.90;;;;;;4908939;29;20074;-67
2023/12/05 12:57:10;;;;;;;3.13;2.25;;;3.80;99.90;;;;;;4908410;29;20048;-66
2023/12/05 12:59:42;;;;;;;3.08;1.95;;;3.70;99.90;;;;;;4909971;29;20516;-67
2023/12/05 13:02:14;;;;;;;3.45;1.80;;;3.70;99.90;;;;;;4909674;29;20048;-67
2023/12/05 13:04:46;;;;;;;2.72;1.80;;;3.70;99.90;;;;;;4911473;29;20120;-66
2023/12/05 13:07:23;;;;;;;2.78;1.98;;;3.70;99.90;;;;;;4909737;29;20123;-67
2023/12/05 13:09:56;;;;;;;4.72;2.03;;;3.60;99.90;;;;;;4910355;29;20535;-66